Time;durP1;ratioP1;P1;durP2;ratioP2;P2;SDS_P1;SDS_P2;PMS_P1;PMS_P2;Temp;Humidity;BMP_temperature;BMP_pressure;BME280_temperature;BME280_humidity;BME280_pressure;Samples;Min_cycle;Max_cycle;Signal;HPM_P1;HPM_P2
2022/09/24 03:59:16;;;;;;;44.88;39.83;;;13.40;99.90;;;;;;5034001;28;20455;-83
2022/09/24 04:01:42;;;;;;;45.28;38.95;;;13.40;99.90;;;;;;5009082;28;20092;-83
2022/09/24 04:04:08;;;;;;;51.28;42.08;;;13.40;99.90;;;;;;5023992;28;20069;-82
2022/09/24 04:06:34;;;;;;;48.97;42.40;;;13.50;99.90;;;;;;5024450;28;20123;-85
2022/09/24 04:08:59;;;;;;;46.90;41.85;;;13.80;99.90;;;;;;5011969;28;20491;-85
2022/09/24 04:11:25;;;;;;;48.42;42.28;;;13.40;99.90;;;;;;5025947;28;20098;-84
2022/09/24 04:13:51;;;;;;;47.33;40.55;;;13.50;99.90;;;;;;5027456;28;20045;-82
2022/09/24 04:16:16;;;;;;;46.15;40.97;;;13.40;99.90;;;;;;5028373;28;20038;-84
2022/09/24 04:18:42;;;;;;;46.92;40.63;;;13.70;99.90;;;;;;5025544;28;20029;-84
2022/09/24 04:21:08;;;;;;;46.85;40.20;;;13.50;99.90;;;;;;5027505;28;20038;-84
2022/09/24 04:23:34;;;;;;;53.42;41.85;;;13.40;99.90;;;;;;5025062;28;20137;-85
2022/09/24 04:26:01;;;;;;;47.30;40.28;;;13.50;99.90;;;;;;5026260;28;20167;-83
2022/09/24 04:28:29;;;;;;;50.25;43.58;;;13.50;99.90;;;;;;5027695;28;20526;-84
2022/09/24 04:30:57;;;;;;;48.63;43.33;;;13.40;99.90;;;;;;5027960;28;20045;-84
2022/09/24 04:33:22;;;;;;;45.83;40.78;;;13.40;99.90;;;;;;5023178;28;20052;-85
2022/09/24 04:35:48;;;;;;;43.47;38.97;;;13.40;99.90;;;;;;5027202;28;20501;-84
2022/09/24 04:38:13;;;;;;;50.33;41.72;;;13.40;99.90;;;;;;5008502;28;20034;-84
2022/09/24 04:40:39;;;;;;;48.58;42.55;;;13.50;99.90;;;;;;5025796;28;20040;-85
2022/09/24 04:43:05;;;;;;;46.15;40.05;;;13.70;99.90;;;;;;5027782;28;20884;-85
2022/09/24 04:45:32;;;;;;;45.92;40.13;;;13.40;99.90;;;;;;5022077;28;20056;-85
2022/09/24 04:47:58;;;;;;;46.03;40.88;;;13.40;99.90;;;;;;5010878;28;20049;-85
2022/09/24 04:50:28;;;;;;;47.25;39.80;;;13.90;99.90;;;;;;5027722;28;20040;-85
2022/09/24 04:52:54;;;;;;;46.38;40.65;;;13.50;99.90;;;;;;5025605;28;20037;-85
2022/09/24 04:55:20;;;;;;;49.22;42.03;;;13.40;99.90;;;;;;5023122;28;20040;-85
2022/09/24 04:57:46;;;;;;;48.85;41.53;;;13.50;99.90;;;;;;5006785;28;20037;-85
2022/09/24 05:00:14;;;;;;;46.20;41.17;;;13.40;99.90;;;;;;5028017;28;20049;-85
2022/09/24 05:02:41;;;;;;;48.38;40.50;;;13.70;99.90;;;;;;5026655;28;20044;-84
2022/09/24 05:05:07;;;;;;;46.85;40.55;;;13.50;99.90;;;;;;5029394;28;20045;-85
2022/09/24 05:07:33;;;;;;;47.25;41.53;;;13.50;99.90;;;;;;5024520;28;20056;-85
2022/09/24 05:09:59;;;;;;;50.95;41.78;;;13.50;99.90;;;;;;5024693;28;20069;-85
2022/09/24 05:12:32;;;;;;;50.25;40.15;;;13.90;99.90;;;;;;5009757;28;20042;-85
2022/09/24 05:15:18;;;;;;;45.85;40.25;;;13.50;99.90;;;;;;5021072;28;20037;-85
2022/09/24 05:17:45;;;;;;;52.55;42.50;;;13.50;99.90;;;;;;5024642;28;20499;-85
2022/09/24 05:20:11;;;;;;;47.45;40.90;;;13.50;99.90;;;;;;5029011;28;20427;-83
2022/09/24 05:22:51;;;;;;;;;;;13.40;99.90;;;;;;5031834;28;20118;-84
2022/09/24 05:30:31;;;;;;;48.47;41.97;;;13.50;99.90;;;;;;5030463;28;20099;-85
2022/09/24 05:33:15;;;;;;;48.38;40.42;;;13.50;99.90;;;;;;5037556;28;20036;-83
2022/09/24 05:54:21;;;;;;;34.78;31.08;;;13.50;99.90;;;;;;5035924;28;20044;-84
2022/09/24 05:57:40;;;;;;;30.95;26.27;;;13.50;99.90;;;;;;5013478;28;20037;-84
2022/09/24 06:01:12;;;;;;;25.50;22.88;;;13.50;99.90;;;;;;5036196;28;20080;-84
2022/09/24 06:04:11;;;;;;;30.17;22.90;;;13.50;99.90;;;;;;5042962;28;20128;-84
2022/09/24 06:06:56;;;;;;;27.05;24.25;;;13.70;99.90;;;;;;5028257;28;20041;-83
2022/09/24 06:09:37;;;;;;;23.63;21.05;;;13.50;99.90;;;;;;5011205;28;20052;-84
2022/09/24 06:13:14;;;;;;;23.67;20.00;;;13.50;99.90;;;;;;5035958;28;20041;-84
2022/09/24 06:16:07;;;;;;;21.20;19.10;;;13.50;99.90;;;;;;5028547;28;20098;-83
2022/09/24 06:18:47;;;;;;;25.70;20.65;;;13.50;99.90;;;;;;5019893;28;20037;-85
2022/09/24 06:22:22;;;;;;;21.25;19.05;;;13.50;99.90;;;;;;5034109;28;20068;-82
2022/09/24 06:25:22;;;;;;;25.45;20.70;;;13.50;99.90;;;;;;5022834;28;20123;-84
2022/09/24 06:28:40;;;;;;;28.65;21.10;;;13.50;99.90;;;;;;5031064;28;20155;-83
2022/09/24 06:31:11;;;;;;;28.23;21.92;;;13.50;99.90;;;;;;5004690;28;20491;-85
2022/09/24 06:33:40;;;;;;;24.80;21.27;;;13.50;99.90;;;;;;5033799;28;20041;-84
2022/09/24 06:36:10;;;;;;;25.40;21.10;;;13.50;99.90;;;;;;5034847;28;20052;-85
2022/09/24 06:38:38;;;;;;;25.27;22.20;;;13.50;99.90;;;;;;5009475;28;20506;-83
2022/09/24 06:41:05;;;;;;;27.38;22.05;;;13.50;99.90;;;;;;5016261;28;20055;-83
2022/09/24 06:43:32;;;;;;;30.45;22.77;;;13.50;99.90;;;;;;5028866;28;20050;-84
2022/09/24 06:46:04;;;;;;;24.17;21.58;;;13.70;99.90;;;;;;5017523;28;20045;-85
2022/09/24 06:48:33;;;;;;;24.10;20.15;;;13.70;99.90;;;;;;5007381;28;20051;-84
2022/09/24 06:51:06;;;;;;;24.23;21.27;;;13.50;99.90;;;;;;5031098;28;20124;-85
2022/09/24 06:53:35;;;;;;;24.52;19.98;;;13.60;99.90;;;;;;5011235;28;20088;-83
2022/09/24 06:59:50;;;;;;;23.75;20.70;;;13.70;99.90;;;;;;5031419;28;20052;-83
2022/09/24 07:03:26;;;;;;;23.88;21.48;;;13.80;99.90;;;;;;5044802;28;20051;-84
2022/09/24 07:07:33;;;;;;;22.42;20.05;;;13.90;99.90;;;;;;5034213;28;20047;-84
2022/09/24 07:10:25;;;;;;;22.73;20.42;;;13.90;99.90;;;;;;4992324;28;20201;-84
2022/09/24 07:12:54;;;;;;;23.43;21.03;;;13.90;99.90;;;;;;5002651;28;20045;-83
2022/09/24 07:15:31;;;;;;;23.25;20.52;;;13.90;99.90;;;;;;5012943;28;20187;-83
2022/09/24 07:17:59;;;;;;;24.40;21.75;;;14.00;99.90;;;;;;5027901;28;21575;-85
2022/09/24 07:35:41;;;;;;;21.98;16.27;;;14.20;99.90;;;;;;5007156;28;20045;-87
2022/09/24 07:42:25;;;;;;;22.38;15.45;;;14.10;99.90;;;;;;5018127;28;20076;-86
2022/09/24 07:56:45;;;;;;;19.98;9.68;;;14.40;99.90;;;;;;5036122;28;20068;-83
2022/09/24 07:59:23;;;;;;;16.83;9.10;;;14.70;99.90;;;;;;4997628;28;20050;-83
2022/09/24 08:01:49;;;;;;;15.98;6.03;;;14.50;99.90;;;;;;5015924;28;20175;-83
2022/09/24 08:04:17;;;;;;;13.18;4.55;;;14.60;99.90;;;;;;5027719;28;20037;-83
2022/09/24 08:06:45;;;;;;;18.10;3.92;;;14.60;99.90;;;;;;5048040;28;20052;-83
2022/09/24 08:09:15;;;;;;;10.32;1.88;;;14.70;99.90;;;;;;5047722;28;20185;-83
2022/09/24 08:11:41;;;;;;;12.32;2.38;;;14.90;99.90;;;;;;5022601;28;20033;-83
2022/09/24 08:18:30;;;;;;;12.02;2.60;;;15.10;99.90;;;;;;5060009;28;20051;-84
2022/09/24 08:21:09;;;;;;;12.05;2.22;;;15.10;99.90;;;;;;5033136;28;20148;-84
2022/09/24 08:23:35;;;;;;;15.27;1.98;;;15.30;99.90;;;;;;5037232;28;20103;-84
2022/09/24 08:26:01;;;;;;;13.35;2.75;;;15.30;99.90;;;;;;5025267;28;20457;-83
2022/09/24 08:28:31;;;;;;;12.48;1.95;;;15.30;99.90;;;;;;5037246;28;20040;-85
2022/09/24 08:31:02;;;;;;;14.85;2.70;;;15.40;99.90;;;;;;5038638;28;20041;-84
2022/09/24 08:33:30;;;;;;;14.70;2.25;;;15.50;99.90;;;;;;5038362;28;20037;-84
2022/09/24 08:36:02;;;;;;;13.48;1.95;;;15.40;99.90;;;;;;5022278;28;20043;-85
2022/09/24 08:38:36;;;;;;;8.07;1.50;;;15.40;99.90;;;;;;5042508;28;20050;-86
2022/09/24 08:56:47;;;;;;;10.95;1.35;;;15.60;99.90;;;;;;5047746;28;20168;-86
2022/09/24 09:10:58;;;;;;;5.30;0.90;;;15.70;99.90;;;;;;5056339;28;20083;-85
2022/09/24 09:13:56;;;;;;;;;;;15.80;99.90;;;;;;5041002;28;20030;-85
2022/09/24 09:32:16;;;;;;;8.93;1.25;;;16.20;99.90;;;;;;5048587;28;20048;-85
2022/09/24 09:35:45;;;;;;;10.07;2.10;;;16.30;99.90;;;;;;4976605;28;20042;-84
2022/09/24 09:38:48;;;;;;;7.60;1.23;;;16.20;99.90;;;;;;4951428;28;20046;-85
2022/09/24 09:45:59;;;;;;;19.20;2.03;;;16.00;99.90;;;;;;4953268;28;20051;-85
2022/09/24 09:48:30;;;;;;;10.27;2.25;;;15.80;99.90;;;;;;5029224;28;20064;-84
2022/09/24 09:54:40;;;;;;;11.68;1.40;;;15.70;99.90;;;;;;5036572;28;20089;-86
2022/09/24 10:00:48;;;;;;;9.70;1.90;;;15.60;99.90;;;;;;5034824;28;20147;-86
2022/09/24 10:04:10;;;;;;;8.65;1.48;;;15.50;99.90;;;;;;5032286;28;20041;-86
2022/09/24 10:07:04;;;;;;;12.43;2.13;;;15.50;99.90;;;;;;5037398;28;20116;-85
2022/09/24 10:09:30;;;;;;;10.07;1.15;;;15.40;99.90;;;;;;5017761;28;20106;-86
2022/09/24 10:12:07;;;;;;;11.15;1.98;;;15.30;99.90;;;;;;5037493;28;20057;-85
2022/09/24 10:14:32;;;;;;;10.52;1.42;;;15.40;99.90;;;;;;5031154;28;20049;-86
2022/09/24 10:17:04;;;;;;;11.20;1.90;;;15.40;99.90;;;;;;5020746;28;20135;-85
2022/09/24 10:19:33;;;;;;;7.57;1.30;;;15.50;99.90;;;;;;5036970;28;20045;-85
2022/09/24 10:22:32;;;;;;;8.68;1.05;;;15.50;99.90;;;;;;5037850;28;20128;-85
2022/09/24 10:24:59;;;;;;;9.30;1.27;;;15.40;99.90;;;;;;5030916;28;20065;-85
2022/09/24 10:27:35;;;;;;;4.38;0.73;;;15.70;99.90;;;;;;5036034;28;20049;-86
2022/09/24 16:19:22;;;;;;;13.00;1.30;;;13.70;99.90;;;;;;4843395;23;20048;-84
2022/09/24 16:21:52;;;;;;;6.90;0.88;;;13.70;99.90;;;;;;4888204;29;20084;-86
2022/09/24 16:24:45;;;;;;;8.27;1.10;;;13.60;99.90;;;;;;4872546;29;20036;-85
2022/09/24 16:27:49;;;;;;;8.85;1.02;;;13.70;99.90;;;;;;4884752;29;20132;-84
2022/09/24 16:30:16;;;;;;;7.65;1.35;;;13.70;99.90;;;;;;4867236;29;20072;-83
2022/09/24 17:19:18;;;;;;;11.05;1.75;;;13.60;99.90;;;;;;4854360;29;20049;-85
2022/09/24 17:22:24;;;;;;;6.20;1.00;;;13.60;99.90;;;;;;4864831;29;20558;-86
2022/09/24 17:33:05;;;;;;;5.28;0.82;;;13.50;99.90;;;;;;4839902;29;20115;-86
2022/09/24 17:36:17;;;;;;;;;;;;;;;;;;;;;
2022/09/24 17:38:59;;;;;;;14.10;1.17;;;13.50;99.90;;;;;;4775337;29;20057;-83
2022/09/24 17:41:27;;;;;;;9.55;1.33;;;13.50;99.90;;;;;;4827451;29;20060;-85
2022/09/24 17:44:03;;;;;;;7.35;0.88;;;13.50;99.90;;;;;;4890451;29;20065;-88
2022/09/24 17:46:34;;;;;;;;;;;13.50;99.90;;;;;;4894214;29;20433;-87
2022/09/24 17:49:17;;;;;;;6.93;0.80;;;13.40;99.90;;;;;;4873222;29;19973;-87
2022/09/24 17:51:53;;;;;;;6.18;1.17;;;13.40;99.90;;;;;;4856162;29;20061;-87
2022/09/24 17:54:26;;;;;;;7.82;1.30;;;13.40;99.90;;;;;;4867496;29;20053;-86
2022/09/24 17:56:53;;;;;;;5.95;1.02;;;13.50;99.90;;;;;;4841291;29;20136;-83
2022/09/24 17:59:19;;;;;;;5.25;1.40;;;13.50;99.90;;;;;;4835827;29;20049;-84
2022/09/24 18:01:55;;;;;;;8.52;1.17;;;13.50;99.90;;;;;;4874878;29;20448;-86
2022/09/24 18:04:52;;;;;;;7.32;1.00;;;13.50;99.90;;;;;;4872093;29;20041;-84
2022/09/24 18:07:48;;;;;;;10.05;1.27;;;13.60;99.90;;;;;;4883779;29;20061;-84
2022/09/24 18:10:37;;;;;;;12.43;1.83;;;13.40;99.90;;;;;;4840731;29;20136;-84
2022/09/24 18:13:21;;;;;;;7.97;1.27;;;13.50;99.90;;;;;;4874469;29;20143;-85
2022/09/24 18:15:51;;;;;;;8.35;1.15;;;13.50;99.90;;;;;;4889157;29;20076;-85
2022/09/24 18:18:38;;;;;;;5.72;1.15;;;13.50;99.90;;;;;;4891582;29;20071;-85
2022/09/24 18:21:23;;;;;;;7.20;1.00;;;13.40;99.90;;;;;;4890836;29;20143;-84
2022/09/24 18:24:01;;;;;;;5.53;1.05;;;13.40;99.90;;;;;;4892351;29;20048;-84
2022/09/24 18:26:34;;;;;;;6.85;0.73;;;13.40;99.90;;;;;;4890057;29;20063;-84
2022/09/24 18:29:04;;;;;;;6.50;0.45;;;13.70;99.90;;;;;;4869936;29;20103;-85
2022/09/24 18:35:42;;;;;;;5.97;0.70;;;13.40;99.90;;;;;;4871723;29;20047;-85
2022/09/24 18:38:50;;;;;;;5.95;0.77;;;13.40;99.90;;;;;;4890438;29;20053;-85
2022/09/24 18:41:54;;;;;;;6.65;1.02;;;13.30;99.90;;;;;;4892855;29;20052;-85
2022/09/24 18:48:11;;;;;;;9.60;0.93;;;13.30;99.90;;;;;;4893083;29;20047;-85
2022/09/24 18:50:42;;;;;;;6.18;0.70;;;13.20;99.90;;;;;;4888464;29;20716;-86
2022/09/24 18:53:07;;;;;;;10.93;0.80;;;13.20;99.90;;;;;;4889148;29;20052;-85
2022/09/24 18:55:40;;;;;;;7.68;1.52;;;13.20;99.90;;;;;;4870197;29;20069;-85
2022/09/24 18:58:09;;;;;;;6.10;0.98;;;13.20;99.90;;;;;;4895072;29;20099;-85
2022/09/24 19:00:50;;;;;;;8.55;0.90;;;13.20;99.90;;;;;;4891949;29;20127;-85
2022/09/24 19:03:20;;;;;;;8.10;1.10;;;13.20;99.90;;;;;;4871617;29;20053;-86
2022/09/24 19:05:49;;;;;;;7.68;1.00;;;13.20;99.90;;;;;;4873417;29;20076;-85
2022/09/24 19:08:15;;;;;;;5.47;0.82;;;13.10;99.90;;;;;;4893327;29;20055;-86
2022/09/24 19:10:41;;;;;;;7.85;1.00;;;13.10;99.90;;;;;;4887794;29;20044;-85
2022/09/24 19:13:07;;;;;;;5.25;0.80;;;13.10;99.90;;;;;;4894816;29;20088;-84
2022/09/24 19:15:37;;;;;;;3.33;0.80;;;13.00;99.90;;;;;;4886827;29;20044;-84
2022/09/24 19:18:05;;;;;;;5.97;1.00;;;13.10;99.90;;;;;;4889591;29;20060;-85
2022/09/24 19:20:35;;;;;;;6.68;1.88;;;13.20;99.90;;;;;;4889016;29;20864;-85
2022/09/24 19:23:01;;;;;;;6.78;0.95;;;13.00;99.90;;;;;;4891901;29;20068;-86
2022/09/24 19:25:30;;;;;;;6.18;0.75;;;13.00;99.90;;;;;;4888734;29;20036;-85
2022/09/24 19:27:56;;;;;;;8.52;0.80;;;12.90;99.90;;;;;;4887676;29;20040;-84
2022/09/24 19:30:23;;;;;;;7.78;1.20;;;12.90;99.90;;;;;;4888822;29;20117;-85
2022/09/24 19:32:49;;;;;;;7.55;0.95;;;13.10;99.90;;;;;;4868960;29;20467;-85
2022/09/24 19:35:14;;;;;;;6.53;0.80;;;12.90;99.90;;;;;;4886369;29;20135;-85
2022/09/24 19:37:43;;;;;;;11.63;1.52;;;12.70;99.90;;;;;;4892417;29;20051;-87
2022/09/24 19:40:24;;;;;;;8.85;0.70;;;12.60;99.90;;;;;;4892401;29;20056;-87
2022/09/24 19:43:56;;;;;;;;;;;;;;;;;;;;;
2022/09/24 19:46:46;;;;;;;7.72;0.93;;;12.50;99.90;;;;;;4887894;29;20055;-85
2022/09/24 19:49:12;;;;;;;4.63;0.77;;;12.70;99.90;;;;;;4886884;29;20052;-85
2022/09/24 19:51:38;;;;;;;6.72;0.90;;;11.90;99.90;;;;;;4871112;29;20052;-86
2022/09/24 19:54:06;;;;;;;7.82;1.10;;;12.30;99.90;;;;;;4895018;29;20048;-86
2022/09/24 19:56:31;;;;;;;4.32;0.88;;;12.20;99.90;;;;;;4892288;29;20196;-88
2022/09/24 19:58:59;;;;;;;5.60;0.77;;;12.20;99.90;;;;;;4890655;29;20108;-86
2022/09/24 20:01:29;;;;;;;8.13;1.58;;;12.20;99.90;;;;;;4895731;29;20108;-87
2022/09/24 20:03:57;;;;;;;5.85;0.93;;;12.80;99.90;;;;;;4910118;29;20077;-86
2022/09/24 20:06:27;;;;;;;6.40;1.02;;;12.00;99.90;;;;;;4880750;29;20077;-86
2022/09/24 20:08:53;;;;;;;3.90;0.70;;;12.00;99.90;;;;;;4883093;29;20092;-86
2022/09/24 20:11:21;;;;;;;4.43;1.05;;;11.70;99.90;;;;;;4883428;29;20496;-86
2022/09/24 20:13:48;;;;;;;8.65;0.98;;;11.90;99.90;;;;;;4864821;29;20037;-86
2022/09/24 20:16:18;;;;;;;7.53;1.02;;;11.80;99.90;;;;;;4892399;29;20099;-86
2022/09/24 20:18:53;;;;;;;7.50;1.33;;;12.30;99.90;;;;;;4885207;29;20059;-86
2022/09/24 20:21:20;;;;;;;6.20;0.93;;;11.80;99.90;;;;;;4872222;29;20128;-86
2022/09/24 20:23:47;;;;;;;9.02;1.27;;;12.30;99.90;;;;;;4872565;29;20044;-86
2022/09/24 20:28:58;;;;;;;8.55;1.55;;;11.60;99.90;;;;;;4893798;29;20140;-86
2022/09/24 20:31:24;;;;;;;5.32;1.10;;;11.60;99.90;;;;;;4893437;29;20096;-86
2022/09/24 20:33:51;;;;;;;6.18;0.88;;;11.50;99.90;;;;;;4896893;29;20044;-86
2022/09/24 20:36:24;;;;;;;8.07;1.52;;;11.90;99.90;;;;;;4891812;29;20052;-86
2022/09/24 20:38:53;;;;;;;7.50;0.82;;;11.50;99.90;;;;;;4891018;29;20108;-85
2022/09/24 20:41:22;;;;;;;5.75;0.90;;;11.80;99.90;;;;;;4907114;29;20051;-86
2022/09/24 20:43:57;;;;;;;7.28;2.15;;;11.60;99.90;;;;;;4889223;29;20495;-86
2022/09/24 20:46:45;;;;;;;7.22;1.08;;;11.50;99.90;;;;;;4904377;29;20037;-86
2022/09/24 20:49:27;;;;;;;;;;;;;;;;;;;;;
2022/09/24 20:51:58;;;;;;;5.45;1.45;;;11.60;99.90;;;;;;4906390;29;20089;-86
2022/09/24 20:54:38;;;;;;;9.25;1.30;;;11.30;99.90;;;;;;4889185;29;20112;-86
2022/09/24 20:57:07;;;;;;;6.63;1.33;;;11.30;99.90;;;;;;4894086;29;20100;-87
2022/09/24 20:59:41;;;;;;;8.07;1.30;;;11.20;99.90;;;;;;4893305;29;20056;-86
2022/09/24 21:05:20;;;;;;;10.55;1.00;;;11.10;99.90;;;;;;4900471;29;20056;-86
2022/09/24 21:07:49;;;;;;;7.10;0.93;;;11.30;99.90;;;;;;4890988;29;20044;-86
2022/09/24 21:10:23;;;;;;;8.20;0.88;;;11.20;99.90;;;;;;4892510;29;20320;-86
2022/09/24 21:12:53;;;;;;;5.65;1.00;;;10.90;99.90;;;;;;4901010;29;20096;-86
2022/09/24 21:15:22;;;;;;;6.53;1.33;;;11.30;99.90;;;;;;4906432;29;20044;-86
2022/09/24 21:17:53;;;;;;;4.68;0.95;;;11.00;99.90;;;;;;4892970;29;20044;-86
2022/09/24 21:20:21;;;;;;;6.70;0.85;;;10.90;99.90;;;;;;4903215;29;20052;-86
2022/09/24 21:22:59;;;;;;;5.88;1.08;;;10.80;99.90;;;;;;4904628;29;20410;-86
2022/09/24 21:25:49;;;;;;;6.30;0.80;;;10.80;99.90;;;;;;4903106;29;20073;-86
2022/09/24 21:28:14;;;;;;;11.40;1.30;;;10.90;99.90;;;;;;4889410;29;20295;-86
2022/09/24 21:31:03;;;;;;;5.28;1.00;;;10.80;99.90;;;;;;4894064;29;20055;-86
2022/09/24 21:33:47;;;;;;;9.20;1.40;;;10.60;99.90;;;;;;4909302;29;20092;-87
2022/09/24 21:36:17;;;;;;;6.45;1.00;;;10.30;99.90;;;;;;4885858;29;20052;-87
2022/09/24 21:39:12;;;;;;;4.10;0.80;;;9.90;99.90;;;;;;4880714;29;20531;-86
2022/09/24 21:41:53;;;;;;;11.52;1.20;;;10.40;99.90;;;;;;4878756;29;20056;-86
2022/09/24 21:44:25;;;;;;;8.35;0.98;;;10.30;99.90;;;;;;4887729;29;20143;-86
2022/09/24 21:47:18;;;;;;;;;;;;;;;;;;;;;
2022/09/24 21:50:18;;;;;;;8.40;1.10;;;10.10;99.90;;;;;;4907159;29;20083;-86
2022/09/24 21:52:43;;;;;;;10.27;1.17;;;10.30;99.90;;;;;;4892268;29;20048;-86
2022/09/24 21:55:24;;;;;;;8.63;1.45;;;10.30;99.90;;;;;;4894368;29;20047;-86
2022/09/24 21:57:50;;;;;;;7.03;1.20;;;10.10;99.90;;;;;;4888364;29;20055;-86
2022/09/24 22:00:16;;;;;;;5.90;0.75;;;10.20;99.90;;;;;;4903808;29;20041;-86
2022/09/24 22:02:50;;;;;;;11.10;1.35;;;10.70;99.90;;;;;;4897830;29;20207;-86
2022/09/24 22:05:41;;;;;;;5.50;1.42;;;9.80;99.90;;;;;;4887511;29;20055;-86
2022/09/24 22:08:36;;;;;;;;;;;;;;;;;;;;;
2022/09/24 22:11:25;;;;;;;12.13;1.55;;;9.20;99.90;;;;;;4899763;29;20562;-86
2022/09/24 22:14:04;;;;;;;7.65;1.40;;;9.70;99.90;;;;;;4901053;29;20419;-86
2022/09/24 22:16:47;;;;;;;8.25;1.60;;;9.60;99.90;;;;;;4903302;29;20048;-85
2022/09/24 22:19:16;;;;;;;9.90;3.15;;;10.00;99.90;;;;;;4874359;29;20139;-86
2022/09/24 22:21:44;;;;;;;10.55;1.65;;;9.80;99.90;;;;;;4901307;29;20069;-86
2022/09/24 22:24:13;;;;;;;4.82;1.90;;;9.70;99.90;;;;;;4902015;29;20063;-86
2022/09/24 22:26:54;;;;;;;7.32;1.85;;;9.70;99.90;;;;;;4901866;29;20052;-86
2022/09/24 22:29:19;;;;;;;7.68;1.73;;;9.60;99.90;;;;;;4898644;29;20408;-85
2022/09/24 22:31:45;;;;;;;4.93;1.85;;;9.60;99.90;;;;;;4885408;29;20047;-86
2022/09/24 22:36:56;;;;;;;5.68;1.70;;;9.50;99.90;;;;;;4886824;29;20041;-86
2022/09/24 22:39:21;;;;;;;7.88;1.58;;;9.60;99.90;;;;;;4889500;29;20040;-86
2022/09/24 22:41:47;;;;;;;8.27;2.20;;;9.40;99.90;;;;;;4876099;29;20538;-86
2022/09/24 22:44:13;;;;;;;10.32;2.35;;;9.40;99.90;;;;;;4874546;29;20056;-86
2022/09/24 22:46:40;;;;;;;7.95;1.33;;;9.30;99.90;;;;;;4888428;29;20150;-86
2022/09/24 22:49:05;;;;;;;4.15;1.33;;;9.30;99.90;;;;;;4892001;29;20048;-85
2022/09/24 22:51:32;;;;;;;5.55;1.33;;;9.30;99.90;;;;;;4888270;29;20067;-85
2022/09/24 22:53:58;;;;;;;10.30;1.95;;;9.20;99.90;;;;;;4890763;29;20131;-86
2022/09/24 22:56:25;;;;;;;9.70;1.67;;;9.20;99.90;;;;;;4889858;29;20044;-86
2022/09/24 22:58:59;;;;;;;10.95;2.55;;;10.00;99.90;;;;;;4875767;29;20127;-85
2022/09/24 23:01:28;;;;;;;7.45;1.70;;;9.20;99.90;;;;;;4888279;29;20162;-85
2022/09/24 23:03:55;;;;;;;7.88;1.60;;;9.20;99.90;;;;;;4875562;29;20116;-86
2022/09/24 23:06:20;;;;;;;2.75;1.10;;;9.10;99.90;;;;;;4875188;29;20037;-86
2022/09/24 23:08:47;;;;;;;9.13;2.45;;;9.10;99.90;;;;;;4890948;29;20037;-86
2022/09/24 23:11:16;;;;;;;7.47;1.60;;;9.10;99.90;;;;;;4873919;29;20049;-86
2022/09/24 23:13:43;;;;;;;7.03;1.42;;;9.10;99.90;;;;;;4889334;29;20622;-85
2022/09/24 23:16:14;;;;;;;7.63;1.58;;;9.00;99.90;;;;;;4889615;29;20148;-86
2022/09/24 23:18:41;;;;;;;5.13;1.58;;;9.00;99.90;;;;;;4873903;29;20145;-86
2022/09/24 23:21:10;;;;;;;4.53;1.52;;;9.00;99.90;;;;;;4874091;29;20043;-87
2022/09/24 23:23:36;;;;;;;6.45;1.77;;;9.00;99.90;;;;;;4886949;29;21994;-86
2022/09/24 23:26:13;;;;;;;4.78;1.30;;;9.00;99.90;;;;;;4874275;29;20124;-86
2022/09/24 23:28:39;;;;;;;3.80;1.33;;;9.00;99.90;;;;;;4889885;29;20041;-86
2022/09/24 23:31:10;;;;;;;3.22;0.93;;;9.10;99.90;;;;;;4893184;29;20040;-85
2022/09/24 23:33:38;;;;;;;2.78;0.45;;;9.30;99.90;;;;;;4872573;29;20436;-86
2022/09/24 23:36:06;;;;;;;5.60;1.33;;;8.90;99.90;;;;;;4874414;29;20120;-86
2022/09/24 23:38:32;;;;;;;3.50;0.85;;;8.80;99.90;;;;;;4892318;29;20668;-85
2022/09/24 23:40:59;;;;;;;4.00;0.90;;;8.80;99.90;;;;;;4867575;29;20490;-86
2022/09/24 23:43:26;;;;;;;5.75;1.27;;;8.70;99.90;;;;;;4890575;29;20083;-86
2022/09/24 23:45:52;;;;;;;5.85;1.15;;;8.70;99.90;;;;;;4891141;29;20078;-86
2022/09/24 23:48:18;;;;;;;5.93;1.20;;;8.70;99.90;;;;;;4874750;29;20072;-85
2022/09/24 23:50:45;;;;;;;4.85;1.30;;;8.60;99.90;;;;;;4872235;29;20083;-86
2022/09/24 23:53:11;;;;;;;9.57;1.63;;;8.90;99.90;;;;;;4888477;29;20033;-86
2022/09/24 23:55:44;;;;;;;6.25;0.98;;;8.60;99.90;;;;;;4889307;29;20376;-86
2022/09/24 23:58:10;;;;;;;10.90;1.80;;;9.10;99.90;;;;;;4887751;29;20045;-86
